Time;durP1;ratioP1;P1;durP2;ratioP2;P2;SDS_P1;SDS_P2;PMS_P1;PMS_P2;Temp;Humidity;BMP_temperature;BMP_pressure;BME280_temperature;BME280_humidity;BME280_pressure;Samples;Min_cycle;Max_cycle;Signal;HPM_P1;HPM_P2
2022/11/03 00:01:38;;;;;;;;;;;;;;;18.39;35.64;100026.66;5087064;28;20361;-88
2022/11/03 00:04:04;;;;;;;;;;;;;;;18.25;35.78;100035.25;5098599;28;19920;-88
2022/11/03 00:06:30;;;;;;;;;;;;;;;18.25;36.07;100029.03;5108911;28;19920;-87
2022/11/03 00:08:59;;;;;;;;;;;;;;;18.32;35.87;100034.97;5109386;28;20377;-87
2022/11/03 00:11:24;;;;;;;;;;;;;;;18.53;35.41;100030.56;5108569;28;19916;-89
2022/11/03 00:13:50;;;;;;;;;;;;;;;18.60;35.05;100034.72;5100297;28;20416;-88
2022/11/03 00:16:15;;;;;;;;;;;;;;;18.67;35.73;100029.97;5087091;28;19919;-87
2022/11/03 00:18:40;;;;;;;;;;;;;;;18.72;34.90;100030.63;5089599;28;19916;-87
2022/11/03 00:21:10;;;;;;;;;;;;;;;18.69;35.05;100038.78;5088532;28;20404;-87
2022/11/03 00:23:39;;;;;;;;;;;;;;;18.68;34.79;100037.06;5092307;28;19923;-87
2022/11/03 00:26:05;;;;;;;;;;;;;;;18.81;34.68;100034.72;5108465;28;20010;-86
2022/11/03 00:28:31;;;;;;;;;;;;;;;18.90;34.73;100024.50;5108311;28;20337;-87
2022/11/03 00:30:57;;;;;;;;;;;;;;;18.94;34.48;100028.78;5105809;28;19924;-86
2022/11/03 00:33:25;;;;;;;;;;;;;;;19.02;34.28;100024.91;5089092;28;20305;-87
2022/11/03 00:35:55;;;;;;;;;;;;;;;19.06;34.55;100022.03;5088614;28;20374;-86
2022/11/03 00:38:20;;;;;;;;;;;;;;;19.21;33.83;100022.28;5088174;28;19965;-87
2022/11/03 00:40:51;;;;;;;;;;;;;;;19.35;33.78;100024.31;5087817;28;19916;-87
2022/11/03 00:43:16;;;;;;;;;;;;;;;19.36;33.79;100026.91;5087885;28;20381;-87
2022/11/03 00:45:42;;;;;;;;;;;;;;;19.37;33.60;100019.75;5085770;28;19916;-87
2022/11/03 00:50:51;;;;;;;;;;;;;;;19.53;33.63;100026.13;5087966;28;20049;-86
2022/11/03 00:53:16;;;;;;;;;;;;;;;19.59;33.19;100025.00;5099076;28;20392;-87
2022/11/03 00:55:47;;;;;;;;;;;;;;;19.63;33.06;100021.22;5108415;28;19922;-88
2022/11/03 00:58:12;;;;;;;;;;;;;;;19.65;33.37;100025.56;5108481;28;19916;-88
2022/11/03 01:00:38;;;;;;;;;;;;;;;19.67;32.88;100015.63;5108330;28;19915;-87
2022/11/03 01:03:03;;;;;;;;;;;;;;;19.68;33.16;100021.88;5107573;28;20301;-87
2022/11/03 01:08:12;;;;;;;;;;;;;;;19.67;33.03;100017.47;5087870;28;19922;-89
2022/11/03 01:11:42;;;;;;;;;;;;;;;19.61;33.49;100015.06;5101318;28;19933;-87
2022/11/03 01:13:24;;;;;;;;;;;;;;;19.63;33.04;100014.06;5107736;28;19916;-88
2022/11/03 01:15:49;;;;;;;;;;;;;;;19.67;32.98;100009.44;5106936;28;20375;-86
2022/11/03 01:18:15;;;;;;;;;;;;;;;19.83;32.82;100018.50;5087372;28;20414;-87
2022/11/03 01:20:40;;;;;;;;;;;;;;;19.87;32.81;100016.53;5087402;28;19916;-87
2022/11/03 01:23:05;;;;;;;;;;;;;;;19.76;32.50;100019.69;5087135;28;19920;-87
2022/11/03 01:25:31;;;;;;;;;;;;;;;19.91;32.31;100023.47;5087435;28;20295;-86
2022/11/03 01:27:56;;;;;;;;;;;;;;;19.91;32.27;100026.16;5087700;28;20011;-85
2022/11/03 01:30:22;;;;;;;;;;;;;;;19.79;32.55;100018.72;5087604;28;19923;-86
2022/11/03 01:32:47;;;;;;;;;;;;;;;19.91;32.57;100027.94;5087902;28;20376;-86
2022/11/03 01:35:12;;;;;;;;;;;;;;;19.89;32.40;100025.34;5088242;28;20673;-85
2022/11/03 01:37:38;;;;;;;;;;;;;;;19.78;32.37;100025.00;5091495;28;19927;-88
2022/11/03 01:40:03;;;;;;;;;;;;;;;19.80;32.21;100026.69;5109183;28;20014;-87
2022/11/03 01:42:29;;;;;;;;;;;;;;;19.90;32.18;100018.19;5109040;28;19968;-87
2022/11/03 01:44:54;;;;;;;;;;;;;;;19.96;31.88;100018.75;5109895;27;19976;-88
2022/11/03 01:47:21;;;;;;;;;;;;;;;19.95;32.21;100022.38;5106523;28;19955;-85
2022/11/03 01:49:47;;;;;;;;;;;;;;;20.00;32.16;100024.81;5106821;28;19916;-86
2022/11/03 01:52:15;;;;;;;;;;;;;;;20.02;32.21;100026.50;5106736;28;19930;-85
2022/11/03 01:54:42;;;;;;;;;;;;;;;19.96;31.80;100028.63;5106054;28;19943;-89
2022/11/03 01:57:10;;;;;;;;;;;;;;;19.97;31.80;100014.25;5110043;28;20462;-87
2022/11/03 01:59:36;;;;;;;;;;;;;;;20.03;31.75;100027.34;5109322;28;19916;-86
2022/11/03 02:02:02;;;;;;;;;;;;;;;20.07;31.76;100028.09;5092911;28;20294;-88
2022/11/03 02:04:32;;;;;;;;;;;;;;;20.08;31.36;100030.69;5091564;28;19930;-87
2022/11/03 02:07:06;;;;;;;;;;;;;;;20.17;31.29;100024.88;5092714;28;19926;-86
2022/11/03 02:09:31;;;;;;;;;;;;;;;20.25;31.29;100029.84;5110015;28;20717;-87
2022/11/03 02:12:06;;;;;;;;;;;;;;;20.31;31.01;100034.03;5096913;28;19927;-87
2022/11/03 02:14:32;;;;;;;;;;;;;;;20.40;30.71;100033.56;5089279;28;20304;-88
2022/11/03 02:17:01;;;;;;;;;;;;;;;20.36;30.85;100032.84;5091409;28;19916;-88
2022/11/03 02:19:32;;;;;;;;;;;;;;;20.37;30.60;100034.59;5090917;28;19920;-88
2022/11/03 02:22:03;;;;;;;;;;;;;;;20.21;31.11;100044.34;5089781;28;20336;-87
2022/11/03 02:24:49;;;;;;;;;;;;;;;20.18;31.37;100047.16;5090889;28;20057;-88
2022/11/03 02:27:14;;;;;;;;;;;;;;;20.11;31.31;100040.38;5090035;28;19973;-88
2022/11/03 02:29:40;;;;;;;;;;;;;;;20.23;31.15;100045.13;5090059;28;19916;-89
2022/11/03 02:32:20;;;;;;;;;;;;;;;20.08;31.53;100038.72;5105371;28;19926;-89
2022/11/03 02:34:48;;;;;;;;;;;;;;;19.94;31.56;100041.19;5093903;28;19939;-88
2022/11/03 02:37:19;;;;;;;;;;;;;;;19.95;31.74;100041.09;5089900;28;20361;-89
2022/11/03 02:40:04;;;;;;;;;;;;;;;19.64;32.39;100042.53;5091082;28;20754;-88
2022/11/03 02:42:30;;;;;;;;;;;;;;;19.62;32.38;100039.06;5090541;28;19916;-88
2022/11/03 02:44:59;;;;;;;;;;;;;;;19.48;32.45;100046.88;5091469;28;20448;-89
2022/11/03 02:47:26;;;;;;;;;;;;;;;19.48;32.25;100046.88;5090883;28;19916;-88
2022/11/03 02:49:53;;;;;;;;;;;;;;;19.54;32.48;100041.25;5090382;28;19912;-89
2022/11/03 02:52:37;;;;;;;;;;;;;;;19.57;31.86;100045.56;5090277;28;19998;-89
2022/11/03 02:55:09;;;;;;;;;;;;;;;19.39;32.43;100045.50;5106017;28;20030;-87
2022/11/03 02:57:37;;;;;;;;;;;;;;;19.42;32.44;100039.16;5108570;28;19998;-86
2022/11/03 03:00:05;;;;;;;;;;;;;;;19.47;32.58;100047.81;5110427;28;19968;-88
2022/11/03 03:02:40;;;;;;;;;;;;;;;19.37;32.44;100044.72;5110378;28;19912;-87
2022/11/03 03:05:07;;;;;;;;;;;;;;;19.44;32.79;100050.63;5093128;28;20371;-87
2022/11/03 03:07:34;;;;;;;;;;;;;;;19.39;32.85;100053.53;5089551;28;19920;-88
2022/11/03 03:10:09;;;;;;;;;;;;;;;19.62;32.07;100051.59;5089780;28;19916;-86
2022/11/03 03:12:36;;;;;;;;;;;;;;;19.85;32.14;100051.41;5089734;28;19927;-87
2022/11/03 03:15:03;;;;;;;;;;;;;;;20.09;31.74;100058.31;5089607;28;19927;-85
2022/11/03 03:17:28;;;;;;;;;;;;;;;19.94;32.37;100058.13;5087932;28;19918;-86
2022/11/03 03:20:02;;;;;;;;;;;;;;;19.46;32.65;100052.31;5089874;28;19920;-87
2022/11/03 03:22:32;;;;;;;;;;;;;;;19.02;33.59;100059.66;5094450;28;20010;-87
2022/11/03 03:25:10;;;;;;;;;;;;;;;18.93;33.70;100050.25;5110478;28;19923;-87
2022/11/03 03:27:38;;;;;;;;;;;;;;;19.09;32.68;100053.09;5109600;28;19988;-88
2022/11/03 03:30:05;;;;;;;;;;;;;;;19.16;32.73;100056.38;5108918;28;20014;-88
2022/11/03 03:32:33;;;;;;;;;;;;;;;19.11;33.09;100057.44;5109248;28;19954;-88
2022/11/03 03:34:59;;;;;;;;;;;;;;;19.15;32.82;100058.16;5110004;28;19915;-88
2022/11/03 03:37:25;;;;;;;;;;;;;;;19.26;32.13;100060.34;5110137;28;20322;-87
2022/11/03 03:39:52;;;;;;;;;;;;;;;19.38;32.60;100062.47;5107503;28;19945;-87
2022/11/03 03:42:19;;;;;;;;;;;;;;;19.28;32.15;100070.06;5091299;28;19935;-88
2022/11/03 03:44:45;;;;;;;;;;;;;;;19.30;32.30;100060.16;5093456;28;20430;-88
2022/11/03 03:47:13;;;;;;;;;;;;;;;19.41;32.23;100059.66;5100924;28;19919;-88
2022/11/03 03:49:39;;;;;;;;;;;;;;;19.44;32.11;100055.97;5092382;28;19948;-86
2022/11/03 03:52:04;;;;;;;;;;;;;;;19.59;32.14;100054.41;5101450;28;20333;-86
2022/11/03 03:54:30;;;;;;;;;;;;;;;19.58;31.98;100064.22;5103649;28;19968;-87
2022/11/03 03:56:58;;;;;;;;;;;;;;;19.49;31.88;100057.53;5088836;28;19927;-87
2022/11/03 03:59:24;;;;;;;;;;;;;;;19.50;32.42;100053.88;5088715;28;20015;-86
2022/11/03 04:01:49;;;;;;;;;;;;;;;19.42;31.91;100058.72;5089339;27;20030;-88
2022/11/03 04:04:14;;;;;;;;;;;;;;;19.41;32.10;100058.81;5088828;28;19916;-87
2022/11/03 04:06:39;;;;;;;;;;;;;;;19.29;32.12;100058.44;5088479;28;20007;-87
2022/11/03 04:09:05;;;;;;;;;;;;;;;19.42;32.01;100053.38;5087956;28;20778;-88
2022/11/03 04:22:31;;;;;;;;;;;;;;;19.35;32.67;100051.91;5106743;28;19931;-88
2022/11/03 04:24:57;;;;;;;;;;;;;;;19.07;32.52;100034.44;5111181;27;19956;-89
2022/11/03 04:27:28;;;;;;;;;;;;;;;19.14;32.90;100051.97;5100787;27;19975;-87
2022/11/03 04:29:58;;;;;;;;;;;;;;;19.02;33.02;100051.66;5107027;27;19942;-86
2022/11/03 04:32:24;;;;;;;;;;;;;;;19.07;32.59;100053.16;5098803;27;19915;-87
2022/11/03 04:34:50;;;;;;;;;;;;;;;19.26;32.51;100057.69;5088532;28;19938;-88
2022/11/03 04:37:15;;;;;;;;;;;;;;;19.14;32.25;100051.09;5099118;27;20404;-89
2022/11/03 04:39:41;;;;;;;;;;;;;;;19.23;32.22;100055.16;5095707;27;19920;-92
2022/11/03 04:42:14;;;;;;;;;;;;;;;19.30;32.13;100054.81;5098056;28;20402;-89
2022/11/03 04:44:39;;;;;;;;;;;;;;;19.36;31.83;100059.00;5102068;28;19924;-91
2022/11/03 04:47:08;;;;;;;;;;;;;;;19.49;31.94;100057.53;5097016;27;20422;-93
2022/11/03 04:49:36;;;;;;;;;;;;;;;19.71;31.37;100060.97;5100394;27;19923;-93
2022/11/03 04:52:02;;;;;;;;;;;;;;;19.79;31.47;100069.56;5103803;27;19998;-92
2022/11/03 04:54:27;;;;;;;;;;;;;;;20.06;30.67;100075.41;5105790;28;19932;-87
2022/11/03 04:56:54;;;;;;;;;;;;;;;20.10;30.62;100082.34;5106123;28;20283;-93
2022/11/03 04:59:19;;;;;;;;;;;;;;;20.18;30.73;100090.88;5113658;27;19915;-92
2022/11/03 05:01:45;;;;;;;;;;;;;;;20.31;30.63;100091.16;5091524;27;19928;-96
2022/11/03 05:04:12;;;;;;;;;;;;;;;20.01;31.64;100088.16;5098532;27;19951;-91
2022/11/03 05:06:39;;;;;;;;;;;;;;;19.82;32.11;100093.53;5087944;28;19920;-92
2022/11/03 05:09:15;;;;;;;;;;;;;;;19.66;32.33;100101.34;5087578;28;19922;-90
2022/11/03 05:11:43;;;;;;;;;;;;;;;19.48;32.51;100106.59;5100544;28;19930;-92
2022/11/03 05:14:19;;;;;;;;;;;;;;;19.30;32.90;100108.28;5108254;27;19920;-91
2022/11/03 05:16:45;;;;;;;;;;;;;;;19.21;33.17;100111.38;5098411;28;19924;-92
2022/11/03 05:19:30;;;;;;;;;;;;;;;19.23;33.34;100116.66;5105858;28;19937;-90
2022/11/03 05:21:57;;;;;;;;;;;;;;;19.36;32.98;100122.34;5085359;28;19920;-90
2022/11/03 05:24:24;;;;;;;;;;;;;;;19.21;33.11;100129.22;5087480;28;19919;-90
2022/11/03 05:26:50;;;;;;;;;;;;;;;19.22;33.25;100128.31;5093726;28;19931;-92
2022/11/03 05:29:21;;;;;;;;;;;;;;;19.04;33.38;100133.50;5105361;28;19915;-93
2022/11/03 05:31:47;;;;;;;;;;;;;;;18.96;34.23;100141.00;5101311;28;19916;-94
2022/11/03 05:34:19;;;;;;;;;;;;;;;18.59;35.22;100140.69;5087774;28;19920;-88
2022/11/03 05:36:44;;;;;;;;;;;;;;;18.35;35.83;100145.25;5087229;28;20010;-92
2022/11/03 05:39:23;;;;;;;;;;;;;;;18.00;36.47;100143.94;5095444;28;20472;-89
2022/11/03 05:41:48;;;;;;;;;;;;;;;18.11;36.31;100148.88;5100461;28;19920;-89
2022/11/03 05:44:32;;;;;;;;;;;;;;;17.77;36.98;100161.66;5100377;28;20438;-89
2022/11/03 05:46:58;;;;;;;;;;;;;;;17.31;37.89;100171.34;5107596;28;20002;-89
2022/11/03 05:49:23;;;;;;;;;;;;;;;17.07;38.52;100178.38;5100419;28;19998;-89
2022/11/03 05:51:50;;;;;;;;;;;;;;;16.97;38.87;100185.81;5096359;28;19916;-86
2022/11/03 05:54:21;;;;;;;;;;;;;;;17.10;38.62;100195.16;5092869;28;20409;-86
2022/11/03 05:56:47;;;;;;;;;;;;;;;17.05;38.81;100194.41;5086960;28;19924;-90
2022/11/03 05:59:12;;;;;;;;;;;;;;;17.26;38.65;100195.50;5100835;28;19916;-90
2022/11/03 06:01:38;;;;;;;;;;;;;;;17.13;39.19;100202.16;5093774;28;19915;-91
2022/11/03 06:04:14;;;;;;;;;;;;;;;17.18;39.27;100198.41;5092604;28;20033;-88
2022/11/03 06:06:39;;;;;;;;;;;;;;;17.16;39.49;100199.38;5098907;28;19920;-89
2022/11/03 06:09:13;;;;;;;;;;;;;;;16.97;40.39;100212.47;5099658;28;19926;-89
2022/11/03 06:11:38;;;;;;;;;;;;;;;17.07;39.79;100219.25;5099317;28;19951;-89
2022/11/03 06:14:24;;;;;;;;;;;;;;;16.85;40.24;100219.03;5090812;28;19977;-88
2022/11/03 06:16:57;;;;;;;;;;;;;;;16.50;41.20;100230.81;5104943;28;20045;-89
2022/11/03 06:19:25;;;;;;;;;;;;;;;16.32;41.48;100233.13;5107389;28;19999;-89
2022/11/03 06:21:52;;;;;;;;;;;;;;;16.28;41.68;100243.00;5108949;28;19972;-90
2022/11/03 06:24:19;;;;;;;;;;;;;;;16.46;41.31;100241.53;5108659;28;19966;-88
2022/11/03 06:26:46;;;;;;;;;;;;;;;16.56;41.55;100242.16;5106516;28;19915;-88
2022/11/03 06:29:15;;;;;;;;;;;;;;;16.70;41.29;100243.50;5106753;28;19927;-88
2022/11/03 06:31:42;;;;;;;;;;;;;;;17.02;40.62;100244.28;5110386;28;19984;-89
2022/11/03 06:34:17;;;;;;;;;;;;;;;17.05;39.79;100255.72;5111324;28;19923;-89
2022/11/03 06:36:42;;;;;;;;;;;;;;;17.23;39.89;100258.72;5110077;28;20003;-88
2022/11/03 06:39:12;;;;;;;;;;;;;;;17.34;39.61;100260.06;5100903;28;20011;-91
2022/11/03 06:41:38;;;;;;;;;;;;;;;17.31;39.54;100262.84;5092348;28;19958;-87
2022/11/03 06:44:22;;;;;;;;;;;;;;;17.42;39.40;100264.28;5108984;28;19947;-88
2022/11/03 06:46:48;;;;;;;;;;;;;;;17.59;39.33;100261.03;5110976;28;19915;-88
2022/11/03 06:49:30;;;;;;;;;;;;;;;17.64;38.74;100264.41;5110661;28;19912;-87
2022/11/03 06:51:56;;;;;;;;;;;;;;;17.92;38.99;100267.00;5110821;28;19915;-87
2022/11/03 06:54:21;;;;;;;;;;;;;;;17.96;38.12;100260.63;5111126;28;19929;-87
2022/11/03 06:56:46;;;;;;;;;;;;;;;17.99;38.54;100268.50;5109540;27;19919;-88
2022/11/03 06:59:14;;;;;;;;;;;;;;;17.70;38.50;100266.84;5110968;28;20381;-88
2022/11/03 07:01:40;;;;;;;;;;;;;;;17.39;38.92;100267.06;5107499;28;20413;-89
2022/11/03 07:04:15;;;;;;;;;;;;;;;17.42;39.49;100274.97;5094384;28;19916;-88
2022/11/03 07:06:41;;;;;;;;;;;;;;;17.27;40.02;100274.56;5109722;28;19977;-91
2022/11/03 07:09:10;;;;;;;;;;;;;;;17.29;39.99;100272.69;5105016;28;19942;-90
2022/11/03 07:11:48;;;;;;;;;;;;;;;17.44;40.07;100279.31;5101318;28;19993;-84
2022/11/03 07:14:15;;;;;;;;;;;;;;;17.87;39.64;100287.59;5090467;28;19922;-84
2022/11/03 07:16:45;;;;;;;;;;;;;;;17.99;39.37;100281.84;5091082;28;19916;-84
2022/11/03 07:19:32;;;;;;;;;;;;;;;18.28;39.13;100292.41;5092974;28;20381;-84
2022/11/03 07:21:59;;;;;;;;;;;;;;;18.45;39.13;100287.28;5092975;28;19912;-84
2022/11/03 07:24:26;;;;;;;;;;;;;;;18.48;38.78;100289.84;5091709;28;19963;-83
2022/11/03 07:26:58;;;;;;;;;;;;;;;18.71;38.53;100298.78;5091626;28;19920;-82
2022/11/03 07:29:25;;;;;;;;;;;;;;;19.09;38.28;100294.63;5102903;28;19912;-80
2022/11/03 07:31:51;;;;;;;;;;;;;;;19.29;38.08;100303.59;5103427;28;19919;-82
2022/11/03 07:34:26;;;;;;;;;;;;;;;19.13;38.65;100285.50;5103398;28;19916;-83
2022/11/03 07:36:51;;;;;;;;;;;;;;;19.31;37.49;100289.25;5089627;28;19923;-84
2022/11/03 07:39:18;;;;;;;;;;;;;;;19.18;38.04;100284.47;5089593;28;20752;-84
2022/11/03 07:41:43;;;;;;;;;;;;;;;19.51;37.97;100284.84;5088717;28;19938;-84
2022/11/03 07:44:12;;;;;;;;;;;;;;;19.48;37.73;100288.53;5089570;28;20373;-84
2022/11/03 07:46:38;;;;;;;;;;;;;;;19.62;37.76;100287.94;5089722;28;20016;-84
2022/11/03 07:49:07;;;;;;;;;;;;;;;19.76;37.00;100283.81;5087169;28;20420;-86
2022/11/03 07:51:36;;;;;;;;;;;;;;;20.11;36.85;100279.59;5089007;28;19957;-85
2022/11/03 07:54:01;;;;;;;;;;;;;;;20.41;36.12;100273.75;5089153;28;20016;-87
2022/11/03 07:56:31;;;;;;;;;;;;;;;20.43;35.50;100273.69;5089279;28;20493;-84
2022/11/03 07:59:03;;;;;;;;;;;;;;;20.54;35.49;100276.72;5089117;28;19912;-84
2022/11/03 08:01:28;;;;;;;;;;;;;;;20.61;34.90;100278.16;5089177;28;19981;-84
2022/11/03 08:03:56;;;;;;;;;;;;;;;21.10;33.78;100270.47;5089018;28;20779;-84
2022/11/03 08:06:22;;;;;;;;;;;;;;;21.01;33.89;100273.59;5088642;28;19920;-85
2022/11/03 08:08:47;;;;;;;;;;;;;;;21.44;33.32;100266.09;5088941;28;19920;-84
2022/11/03 08:11:12;;;;;;;;;;;;;;;21.61;33.18;100265.25;5088447;28;20354;-85
2022/11/03 08:13:38;;;;;;;;;;;;;;;21.46;33.31;100266.84;5088392;28;19915;-85
2022/11/03 08:16:03;;;;;;;;;;;;;;;21.52;33.28;100260.34;5088914;28;20092;-84
2022/11/03 08:18:28;;;;;;;;;;;;;;;21.53;33.14;100259.38;5088430;28;20398;-86
2022/11/03 08:20:54;;;;;;;;;;;;;;;21.44;32.95;100262.50;5088533;28;19962;-85
2022/11/03 08:23:19;;;;;;;;;;;;;;;21.71;32.78;100256.72;5086585;28;19912;-85
2022/11/03 08:25:45;;;;;;;;;;;;;;;21.97;32.32;100255.34;5088549;28;19916;-84
2022/11/03 08:28:10;;;;;;;;;;;;;;;22.08;32.16;100255.63;5088278;28;20007;-85
2022/11/03 08:30:35;;;;;;;;;;;;;;;21.94;32.52;100258.19;5087800;28;19916;-83
2022/11/03 08:33:01;;;;;;;;;;;;;;;21.99;32.30;100259.66;5088543;28;19912;-84
2022/11/03 08:35:26;;;;;;;;;;;;;;;22.32;32.42;100258.81;5088300;28;19969;-84
2022/11/03 08:37:51;;;;;;;;;;;;;;;22.19;32.43;100257.72;5088369;28;19931;-84
2022/11/03 08:40:17;;;;;;;;;;;;;;;22.20;32.58;100247.81;5088146;28;19916;-85
2022/11/03 08:42:42;;;;;;;;;;;;;;;21.96;32.58;100254.44;5087852;28;19919;-85
2022/11/03 08:45:08;;;;;;;;;;;;;;;21.69;33.42;100261.28;5087944;28;19922;-85
2022/11/03 08:47:33;;;;;;;;;;;;;;;22.03;32.77;100260.38;5088049;28;19916;-83
2022/11/03 08:49:59;;;;;;;;;;;;;;;22.13;32.66;100252.69;5087724;28;19976;-85
2022/11/03 08:52:25;;;;;;;;;;;;;;;21.93;32.57;100257.28;5088094;28;19916;-84
2022/11/03 08:54:50;;;;;;;;;;;;;;;22.11;32.29;100254.59;5085474;28;19920;-85
2022/11/03 08:57:16;;;;;;;;;;;;;;;22.15;32.19;100253.44;5087905;28;19922;-84
2022/11/03 08:59:41;;;;;;;;;;;;;;;22.30;31.67;100255.34;5087638;28;19915;-85
2022/11/03 09:02:06;;;;;;;;;;;;;;;22.33;31.69;100260.53;5088429;28;19911;-84
2022/11/03 09:04:31;;;;;;;;;;;;;;;22.41;31.39;100249.38;5088007;28;20373;-84
2022/11/03 09:06:57;;;;;;;;;;;;;;;22.22;31.30;100244.13;5087734;28;19946;-85
2022/11/03 09:09:22;;;;;;;;;;;;;;;22.42;30.92;100242.19;5087996;28;19915;-84
2022/11/03 09:11:47;;;;;;;;;;;;;;;22.37;31.03;100246.94;5087778;28;19954;-84
2022/11/03 09:14:13;;;;;;;;;;;;;;;22.47;30.95;100245.47;5087747;28;19912;-85
2022/11/03 09:16:38;;;;;;;;;;;;;;;22.52;31.16;100238.91;5087735;28;19916;-84
2022/11/03 09:19:04;;;;;;;;;;;;;;;22.63;30.87;100238.28;5087753;28;19917;-84
2022/11/03 09:21:29;;;;;;;;;;;;;;;22.57;31.03;100232.38;5088130;28;19951;-84
2022/11/03 09:23:54;;;;;;;;;;;;;;;22.67;30.64;100231.78;5086013;28;19922;-85
2022/11/03 09:26:20;;;;;;;;;;;;;;;22.59;30.53;100234.03;5087772;28;19922;-86
2022/11/03 09:28:46;;;;;;;;;;;;;;;22.29;31.18;100226.72;5087157;28;19966;-84
2022/11/03 09:31:11;;;;;;;;;;;;;;;22.37;31.07;100222.75;5087283;28;20003;-85
2022/11/03 09:33:37;;;;;;;;;;;;;;;22.58;31.41;100229.59;5087368;28;19965;-84
2022/11/03 09:36:02;;;;;;;;;;;;;;;22.59;31.21;100228.66;5087414;28;19915;-83
2022/11/03 09:38:27;;;;;;;;;;;;;;;22.53;31.04;100220.94;5087270;28;19919;-85
2022/11/03 09:40:53;;;;;;;;;;;;;;;22.23;31.69;100220.78;5087082;28;19912;-84
2022/11/03 09:43:19;;;;;;;;;;;;;;;22.27;32.08;100214.31;5087376;28;19966;-84
2022/11/03 09:45:44;;;;;;;;;;;;;;;22.65;31.64;100214.88;5087001;28;19971;-84
2022/11/03 09:48:11;;;;;;;;;;;;;;;22.74;31.59;100207.22;5113220;28;19918;-85
2022/11/03 09:50:36;;;;;;;;;;;;;;;22.66;31.66;100219.31;5127772;27;19911;-83
2022/11/03 09:53:03;;;;;;;;;;;;;;;22.52;31.69;100213.81;5128135;27;20349;-82
2022/11/03 09:55:29;;;;;;;;;;;;;;;22.49;31.88;100212.19;5128151;27;20396;-83
2022/11/03 09:57:57;;;;;;;;;;;;;;;22.74;31.29;100207.22;5127341;27;19928;-84
2022/11/03 10:00:23;;;;;;;;;;;;;;;22.84;31.21;100203.91;5128285;28;19918;-84
2022/11/03 10:02:49;;;;;;;;;;;;;;;22.88;31.10;100201.94;5128113;27;19916;-83
2022/11/03 10:05:32;;;;;;;;;;;;;;;23.24;30.31;100192.66;5106481;27;19963;-84
2022/11/03 10:08:00;;;;;;;;;;;;;;;23.28;29.95;100196.91;5100563;27;19955;-84
2022/11/03 10:10:26;;;;;;;;;;;;;;;23.23;30.34;100191.81;5090659;28;19912;-83
2022/11/03 10:12:52;;;;;;;;;;;;;;;23.40;30.59;100182.72;5097851;28;20394;-84
2022/11/03 10:15:20;;;;;;;;;;;;;;;23.14;30.41;100176.22;5094003;28;19958;-86
2022/11/03 10:17:45;;;;;;;;;;;;;;;23.21;30.22;100184.78;5100667;28;19927;-84
2022/11/03 10:20:15;;;;;;;;;;;;;;;23.28;30.46;100177.19;5090380;28;19916;-85
2022/11/03 10:22:41;;;;;;;;;;;;;;;23.53;30.40;100168.50;5101863;28;19908;-84
2022/11/03 10:25:25;;;;;;;;;;;;;;;23.38;30.38;100171.16;5096525;27;19915;-86
2022/11/03 10:27:50;;;;;;;;;;;;;;;23.40;30.18;100161.19;5092122;28;19916;-84
2022/11/03 10:30:15;;;;;;;;;;;;;;;23.37;30.40;100161.38;5093922;28;19922;-84
2022/11/03 10:32:41;;;;;;;;;;;;;;;23.36;30.19;100154.25;5092016;27;19955;-84
2022/11/03 10:35:25;;;;;;;;;;;;;;;23.28;30.23;100148.47;5098114;27;19915;-84
2022/11/03 10:37:50;;;;;;;;;;;;;;;23.43;30.09;100149.34;5108937;27;20400;-85
2022/11/03 10:40:36;;;;;;;;;;;;;;;23.52;30.14;100147.91;5097258;28;19927;-84
2022/11/03 10:43:01;;;;;;;;;;;;;;;23.63;30.07;100133.78;5094208;28;20444;-86
2022/11/03 10:45:26;;;;;;;;;;;;;;;23.51;30.12;100135.41;5097290;28;19915;-85
2022/11/03 10:47:59;;;;;;;;;;;;;;;23.61;29.69;100128.50;5110394;28;19939;-86
2022/11/03 10:50:25;;;;;;;;;;;;;;;23.80;29.69;100130.03;5109782;28;20014;-85
2022/11/03 10:52:51;;;;;;;;;;;;;;;24.00;29.09;100123.41;5102848;27;20306;-85
2022/11/03 10:55:17;;;;;;;;;;;;;;;23.82;29.32;100114.63;5107303;28;20022;-85
2022/11/03 10:57:42;;;;;;;;;;;;;;;23.81;29.93;100110.22;5109148;28;20446;-84
2022/11/03 11:00:15;;;;;;;;;;;;;;;23.90;29.44;100110.53;5109923;28;19916;-84
2022/11/03 11:02:41;;;;;;;;;;;;;;;23.74;29.27;100112.44;5110007;28;19921;-84
2022/11/03 11:05:13;;;;;;;;;;;;;;;23.65;29.26;100111.19;5109657;28;19919;-83
2022/11/03 11:07:39;;;;;;;;;;;;;;;23.63;29.31;100102.34;5109975;28;19919;-84
2022/11/03 11:10:12;;;;;;;;;;;;;;;23.97;28.85;100092.13;5110760;28;19926;-86
2022/11/03 11:12:38;;;;;;;;;;;;;;;24.20;29.01;100096.03;5110619;27;19922;-85
2022/11/03 11:15:23;;;;;;;;;;;;;;;23.81;29.16;100088.69;5109491;28;20364;-85
2022/11/03 11:17:49;;;;;;;;;;;;;;;23.95;29.53;100081.47;5108257;28;20510;-86
2022/11/03 11:20:17;;;;;;;;;;;;;;;23.83;29.24;100079.53;5114732;27;20009;-85
2022/11/03 11:22:43;;;;;;;;;;;;;;;24.13;29.07;100081.25;5130015;27;19919;-86
2022/11/03 11:25:08;;;;;;;;;;;;;;;23.94;29.03;100077.06;5109516;27;20479;-85
2022/11/03 11:27:40;;;;;;;;;;;;;;;23.75;29.04;100080.00;5089049;28;20008;-85
2022/11/03 11:30:17;;;;;;;;;;;;;;;24.05;28.95;100073.66;5089439;28;19923;-85
2022/11/03 11:32:46;;;;;;;;;;;;;;;24.13;28.91;100070.47;5124556;27;20384;-85
2022/11/03 11:35:21;;;;;;;;;;;;;;;24.20;28.79;100066.38;5130168;27;19915;-85
2022/11/03 11:37:46;;;;;;;;;;;;;;;24.09;28.91;100063.53;5130177;27;19912;-85
2022/11/03 11:40:13;;;;;;;;;;;;;;;23.86;29.31;100057.81;5130028;27;19907;-85
2022/11/03 11:42:57;;;;;;;;;;;;;;;24.02;29.15;100052.31;5130164;27;20010;-86
2022/11/03 11:45:41;;;;;;;;;;;;;;;23.80;29.18;100047.41;5129732;27;19911;-84
2022/11/03 11:48:24;;;;;;;;;;;;;;;23.85;29.13;100048.03;5130206;27;19911;-85
2022/11/03 11:50:49;;;;;;;;;;;;;;;23.83;29.32;100040.97;5129590;27;19920;-86
2022/11/03 11:53:19;;;;;;;;;;;;;;;24.08;29.06;100037.56;5130046;27;19915;-86
2022/11/03 11:55:53;;;;;;;;;;;;;;;23.94;28.90;100038.47;5129710;27;19907;-85
2022/11/03 11:58:22;;;;;;;;;;;;;;;24.16;29.31;100034.34;5129625;27;19942;-84
2022/11/03 12:00:55;;;;;;;;;;;;;;;24.13;28.93;100030.91;5130013;27;19911;-84
2022/11/03 12:03:23;;;;;;;;;;;;;;;24.08;28.87;100030.34;5130061;27;19919;-84
2022/11/03 12:05:49;;;;;;;;;;;;;;;24.02;28.63;100022.66;5129976;27;19918;-85
2022/11/03 12:08:18;;;;;;;;;;;;;;;23.87;29.26;100029.06;5129380;27;19912;-85
2022/11/03 12:10:54;;;;;;;;;;;;;;;23.89;28.92;100027.97;5129667;27;19915;-86
2022/11/03 12:13:34;;;;;;;;;;;;;;;23.98;28.72;100015.75;5130048;27;20385;-85
2022/11/03 12:15:59;;;;;;;;;;;;;;;24.26;28.60;100006.69;5130071;27;19926;-85
2022/11/03 12:18:33;;;;;;;;;;;;;;;24.01;28.85;100015.53;5129523;27;19911;-85
2022/11/03 12:20:59;;;;;;;;;;;;;;;23.95;28.60;100011.41;5129671;27;19922;-86
2022/11/03 12:23:31;;;;;;;;;;;;;;;24.19;28.70;100001.81;5129609;27;19911;-85
2022/11/03 12:25:56;;;;;;;;;;;;;;;24.15;28.34;100006.53;5129275;27;19922;-85
2022/11/03 12:28:32;;;;;;;;;;;;;;;24.01;28.60;99998.53;5129186;27;19915;-85
2022/11/03 12:30:57;;;;;;;;;;;;;;;24.04;28.44;100007.25;5129248;27;19968;-86
2022/11/03 12:33:22;;;;;;;;;;;;;;;24.15;28.21;99997.59;5129130;27;19915;-86
2022/11/03 12:35:48;;;;;;;;;;;;;;;24.09;28.27;99991.63;5129110;27;19975;-85
2022/11/03 12:38:13;;;;;;;;;;;;;;;24.07;28.43;99998.97;5129052;27;20408;-87
2022/11/03 12:40:38;;;;;;;;;;;;;;;23.94;28.87;99996.25;5129386;27;19919;-85
2022/11/03 12:43:03;;;;;;;;;;;;;;;24.07;28.82;99988.19;5129233;27;19915;-88
2022/11/03 12:45:29;;;;;;;;;;;;;;;24.24;28.37;99986.22;5129120;27;19916;-87
2022/11/03 12:47:54;;;;;;;;;;;;;;;24.46;28.28;99978.38;5129030;27;20313;-85
2022/11/03 12:50:19;;;;;;;;;;;;;;;24.31;28.42;99984.81;5129546;27;20422;-84
2022/11/03 12:52:45;;;;;;;;;;;;;;;24.22;28.17;99980.03;5129151;27;20411;-84
2022/11/03 12:55:11;;;;;;;;;;;;;;;24.34;28.13;99981.91;5129164;27;19958;-85
2022/11/03 12:57:36;;;;;;;;;;;;;;;24.08;28.34;99989.06;5129430;27;19916;-84
2022/11/03 13:00:02;;;;;;;;;;;;;;;24.18;28.41;99983.94;5129568;27;20403;-83